sensor_id;sensor_type;location;lat;lon;timestamp;temperature;humidity
16477;DHT22;8349;50.928;6.376;2023-06-19T00:02:26;21.50;99.90
16477;DHT22;8349;50.928;6.376;2023-06-19T00:04:52;21.50;99.90
16477;DHT22;8349;50.928;6.376;2023-06-19T00:07:19;21.50;99.90
16477;DHT22;8349;50.928;6.376;2023-06-19T00:09:47;21.50;99.90
16477;DHT22;8349;50.928;6.376;2023-06-19T00:12:14;21.40;99.90
16477;DHT22;8349;50.928;6.376;2023-06-19T00:14:41;21.40;99.90
16477;DHT22;8349;50.928;6.376;2023-06-19T00:17:09;21.40;99.90
16477;DHT22;8349;50.928;6.376;2023-06-19T00:19:36;21.40;99.90
16477;DHT22;8349;50.928;6.376;2023-06-19T00:22:03;21.30;99.90
16477;DHT22;8349;50.928;6.376;2023-06-19T00:24:30;21.30;99.90
16477;DHT22;8349;50.928;6.376;2023-06-19T00:26:56;21.40;99.90
16477;DHT22;8349;50.928;6.376;2023-06-19T00:29:27;21.40;99.90
16477;DHT22;8349;50.928;6.376;2023-06-19T00:31:56;21.30;99.90
16477;DHT22;8349;50.928;6.376;2023-06-19T00:34:24;21.30;99.90
16477;DHT22;8349;50.928;6.376;2023-06-19T00:36:51;21.30;99.90
16477;DHT22;8349;50.928;6.376;2023-06-19T00:39:21;21.30;99.90
16477;DHT22;8349;50.928;6.376;2023-06-19T00:41:49;21.30;99.90
16477;DHT22;8349;50.928;6.376;2023-06-19T00:44:15;21.30;99.90
16477;DHT22;8349;50.928;6.376;2023-06-19T00:46:42;21.30;99.90
16477;DHT22;8349;50.928;6.376;2023-06-19T00:49:09;21.40;99.90
16477;DHT22;8349;50.928;6.376;2023-06-19T00:51:37;21.40;99.90
16477;DHT22;8349;50.928;6.376;2023-06-19T00:54:05;21.40;99.90
16477;DHT22;8349;50.928;6.376;2023-06-19T00:56:32;21.40;99.90
16477;DHT22;8349;50.928;6.376;2023-06-19T00:59:00;21.40;99.90
16477;DHT22;8349;50.928;6.376;2023-06-19T01:01:26;21.30;99.90
16477;DHT22;8349;50.928;6.376;2023-06-19T01:03:55;21.30;99.90
16477;DHT22;8349;50.928;6.376;2023-06-19T01:06:23;21.40;99.90
16477;DHT22;8349;50.928;6.376;2023-06-19T01:08:55;21.40;99.90
16477;DHT22;8349;50.928;6.376;2023-06-19T01:11:37;21.40;99.90
16477;DHT22;8349;50.928;6.376;2023-06-19T01:14:14;21.30;99.90
16477;DHT22;8349;50.928;6.376;2023-06-19T01:16:42;21.30;99.90
16477;DHT22;8349;50.928;6.376;2023-06-19T01:19:10;21.30;99.90
16477;DHT22;8349;50.928;6.376;2023-06-19T01:21:39;21.30;99.90
16477;DHT22;8349;50.928;6.376;2023-06-19T01:24:07;21.30;99.90
16477;DHT22;8349;50.928;6.376;2023-06-19T01:26:34;21.30;99.90
16477;DHT22;8349;50.928;6.376;2023-06-19T01:29:03;21.30;99.90
16477;DHT22;8349;50.928;6.376;2023-06-19T01:31:31;21.30;99.90
16477;DHT22;8349;50.928;6.376;2023-06-19T01:33:58;21.30;99.90
16477;DHT22;8349;50.928;6.376;2023-06-19T01:36:25;21.50;99.90
16477;DHT22;8349;50.928;6.376;2023-06-19T01:38:52;21.60;99.90
16477;DHT22;8349;50.928;6.376;2023-06-19T01:41:24;21.50;99.90
16477;DHT22;8349;50.928;6.376;2023-06-19T01:43:51;21.60;99.90
16477;DHT22;8349;50.928;6.376;2023-06-19T01:46:18;21.60;99.90
16477;DHT22;8349;50.928;6.376;2023-06-19T01:48:45;21.50;99.90
16477;DHT22;8349;50.928;6.376;2023-06-19T01:51:11;21.50;99.90
16477;DHT22;8349;50.928;6.376;2023-06-19T01:53:38;21.50;99.90
16477;DHT22;8349;50.928;6.376;2023-06-19T01:56:05;21.40;99.90
16477;DHT22;8349;50.928;6.376;2023-06-19T01:58:34;21.50;99.90
16477;DHT22;8349;50.928;6.376;2023-06-19T02:01:01;21.60;99.90
16477;DHT22;8349;50.928;6.376;2023-06-19T02:03:27;21.60;99.90
16477;DHT22;8349;50.928;6.376;2023-06-19T02:05:55;21.60;99.90
16477;DHT22;8349;50.928;6.376;2023-06-19T02:08:22;21.60;99.90
16477;DHT22;8349;50.928;6.376;2023-06-19T02:10:48;21.60;99.90
16477;DHT22;8349;50.928;6.376;2023-06-19T02:13:15;21.70;99.90
16477;DHT22;8349;50.928;6.376;2023-06-19T02:15:43;21.80;99.90
16477;DHT22;8349;50.928;6.376;2023-06-19T02:18:10;21.70;99.90
16477;DHT22;8349;50.928;6.376;2023-06-19T02:20:37;21.70;99.90
16477;DHT22;8349;50.928;6.376;2023-06-19T02:23:04;21.60;99.90
16477;DHT22;8349;50.928;6.376;2023-06-19T02:25:31;21.60;99.90
16477;DHT22;8349;50.928;6.376;2023-06-19T02:27:58;21.50;99.90
16477;DHT22;8349;50.928;6.376;2023-06-19T02:30:25;21.50;99.90
16477;DHT22;8349;50.928;6.376;2023-06-19T02:32:53;21.40;99.90
16477;DHT22;8349;50.928;6.376;2023-06-19T02:35:20;21.30;99.90
16477;DHT22;8349;50.928;6.376;2023-06-19T02:37:47;21.20;99.90
16477;DHT22;8349;50.928;6.376;2023-06-19T02:40:16;21.20;99.90
16477;DHT22;8349;50.928;6.376;2023-06-19T02:42:42;21.10;99.90
16477;DHT22;8349;50.928;6.376;2023-06-19T02:45:09;21.00;99.90
16477;DHT22;8349;50.928;6.376;2023-06-19T02:47:36;20.90;99.90
16477;DHT22;8349;50.928;6.376;2023-06-19T02:50:06;20.80;99.90
16477;DHT22;8349;50.928;6.376;2023-06-19T02:52:35;20.70;99.90
16477;DHT22;8349;50.928;6.376;2023-06-19T02:55:02;20.60;99.90
16477;DHT22;8349;50.928;6.376;2023-06-19T02:57:28;20.60;99.90
16477;DHT22;8349;50.928;6.376;2023-06-19T02:59:55;20.40;99.90
16477;DHT22;8349;50.928;6.376;2023-06-19T03:02:22;20.30;99.90
16477;DHT22;8349;50.928;6.376;2023-06-19T03:04:49;20.20;99.90
16477;DHT22;8349;50.928;6.376;2023-06-19T03:07:18;20.20;99.90
16477;DHT22;8349;50.928;6.376;2023-06-19T03:09:44;20.10;99.90
16477;DHT22;8349;50.928;6.376;2023-06-19T03:12:11;20.10;99.90
16477;DHT22;8349;50.928;6.376;2023-06-19T03:14:38;20.00;99.90
16477;DHT22;8349;50.928;6.376;2023-06-19T03:17:06;19.90;99.90
16477;DHT22;8349;50.928;6.376;2023-06-19T03:19:33;19.90;99.90
16477;DHT22;8349;50.928;6.376;2023-06-19T03:21:59;19.80;99.90
16477;DHT22;8349;50.928;6.376;2023-06-19T03:24:28;19.70;99.90
16477;DHT22;8349;50.928;6.376;2023-06-19T03:27:07;19.80;99.90
16477;DHT22;8349;50.928;6.376;2023-06-19T03:29:34;19.70;99.90
16477;DHT22;8349;50.928;6.376;2023-06-19T03:32:05;19.80;99.90
16477;DHT22;8349;50.928;6.376;2023-06-19T03:34:33;19.80;99.90
16477;DHT22;8349;50.928;6.376;2023-06-19T03:37:04;19.80;99.90
16477;DHT22;8349;50.928;6.376;2023-06-19T03:39:34;19.80;99.90
16477;DHT22;8349;50.928;6.376;2023-06-19T03:42:05;19.80;99.90
16477;DHT22;8349;50.928;6.376;2023-06-19T03:44:32;19.80;99.90
16477;DHT22;8349;50.928;6.376;2023-06-19T03:47:00;19.90;99.90
16477;DHT22;8349;50.928;6.376;2023-06-19T03:49:27;19.90;99.90
16477;DHT22;8349;50.928;6.376;2023-06-19T03:51:54;20.00;99.90
16477;DHT22;8349;50.928;6.376;2023-06-19T03:54:21;20.00;99.90
16477;DHT22;8349;50.928;6.376;2023-06-19T03:56:49;20.00;99.90
16477;DHT22;8349;50.928;6.376;2023-06-19T03:59:16;20.10;99.90
16477;DHT22;8349;50.928;6.376;2023-06-19T04:01:43;20.10;99.90
16477;DHT22;8349;50.928;6.376;2023-06-19T04:04:10;20.10;99.90
16477;DHT22;8349;50.928;6.376;2023-06-19T04:06:37;20.00;99.90
16477;DHT22;8349;50.928;6.376;2023-06-19T04:09:05;20.10;99.90
16477;DHT22;8349;50.928;6.376;2023-06-19T04:11:32;20.00;99.90
16477;DHT22;8349;50.928;6.376;2023-06-19T04:14:02;20.00;99.90
16477;DHT22;8349;50.928;6.376;2023-06-19T04:16:29;20.00;99.90
16477;DHT22;8349;50.928;6.376;2023-06-19T04:18:56;19.80;99.90
16477;DHT22;8349;50.928;6.376;2023-06-19T04:21:22;19.80;99.90
16477;DHT22;8349;50.928;6.376;2023-06-19T04:23:50;19.80;99.90
16477;DHT22;8349;50.928;6.376;2023-06-19T04:26:16;19.80;99.90
16477;DHT22;8349;50.928;6.376;2023-06-19T04:28:44;19.90;99.90
16477;DHT22;8349;50.928;6.376;2023-06-19T04:31:12;19.80;99.90
16477;DHT22;8349;50.928;6.376;2023-06-19T04:33:43;19.80;99.90
16477;DHT22;8349;50.928;6.376;2023-06-19T04:36:10;19.80;99.90
16477;DHT22;8349;50.928;6.376;2023-06-19T04:38:37;19.80;99.90
16477;DHT22;8349;50.928;6.376;2023-06-19T04:41:03;19.80;99.90
16477;DHT22;8349;50.928;6.376;2023-06-19T04:43:30;19.70;99.90
16477;DHT22;8349;50.928;6.376;2023-06-19T04:45:59;19.80;99.90
16477;DHT22;8349;50.928;6.376;2023-06-19T04:48:27;19.80;99.90
16477;DHT22;8349;50.928;6.376;2023-06-19T04:50:55;19.80;99.90
16477;DHT22;8349;50.928;6.376;2023-06-19T04:53:22;19.80;99.90
16477;DHT22;8349;50.928;6.376;2023-06-19T04:55:49;19.80;99.90
16477;DHT22;8349;50.928;6.376;2023-06-19T04:58:16;19.70;99.90
16477;DHT22;8349;50.928;6.376;2023-06-19T05:00:43;19.80;99.90
16477;DHT22;8349;50.928;6.376;2023-06-19T05:03:10;19.90;99.90
16477;DHT22;8349;50.928;6.376;2023-06-19T05:05:40;20.00;99.90
16477;DHT22;8349;50.928;6.376;2023-06-19T05:08:07;20.00;99.90
16477;DHT22;8349;50.928;6.376;2023-06-19T05:10:34;20.00;99.90
16477;DHT22;8349;50.928;6.376;2023-06-19T05:13:01;20.10;99.90
16477;DHT22;8349;50.928;6.376;2023-06-19T05:15:28;20.20;99.90
16477;DHT22;8349;50.928;6.376;2023-06-19T05:17:55;20.30;99.90
16477;DHT22;8349;50.928;6.376;2023-06-19T05:20:22;20.40;99.90
16477;DHT22;8349;50.928;6.376;2023-06-19T05:22:50;20.40;99.90
16477;DHT22;8349;50.928;6.376;2023-06-19T05:25:17;20.40;99.90
16477;DHT22;8349;50.928;6.376;2023-06-19T05:27:43;20.50;99.90
16477;DHT22;8349;50.928;6.376;2023-06-19T05:30:10;20.50;99.90
16477;DHT22;8349;50.928;6.376;2023-06-19T05:32:37;20.50;99.90
16477;DHT22;8349;50.928;6.376;2023-06-19T05:35:04;20.50;99.90
16477;DHT22;8349;50.928;6.376;2023-06-19T05:37:31;20.50;99.90
16477;DHT22;8349;50.928;6.376;2023-06-19T05:39:59;20.60;99.90
16477;DHT22;8349;50.928;6.376;2023-06-19T05:42:26;20.50;99.90
16477;DHT22;8349;50.928;6.376;2023-06-19T05:44:53;20.60;99.90
16477;DHT22;8349;50.928;6.376;2023-06-19T05:47:19;20.70;99.90
16477;DHT22;8349;50.928;6.376;2023-06-19T05:49:47;20.70;99.90
16477;DHT22;8349;50.928;6.376;2023-06-19T05:52:14;20.90;99.90
16477;DHT22;8349;50.928;6.376;2023-06-19T05:54:40;21.00;99.90
16477;DHT22;8349;50.928;6.376;2023-06-19T05:57:09;21.00;99.90
16477;DHT22;8349;50.928;6.376;2023-06-19T05:59:36;21.00;99.90
16477;DHT22;8349;50.928;6.376;2023-06-19T06:02:03;21.20;99.90
16477;DHT22;8349;50.928;6.376;2023-06-19T06:04:31;21.30;99.90
16477;DHT22;8349;50.928;6.376;2023-06-19T06:06:58;21.20;99.90
16477;DHT22;8349;50.928;6.376;2023-06-19T06:09:25;21.30;99.90
16477;DHT22;8349;50.928;6.376;2023-06-19T06:11:52;21.30;99.90
16477;DHT22;8349;50.928;6.376;2023-06-19T06:14:20;21.20;99.90
16477;DHT22;8349;50.928;6.376;2023-06-19T06:16:47;21.20;99.90
16477;DHT22;8349;50.928;6.376;2023-06-19T06:19:14;21.30;99.90
16477;DHT22;8349;50.928;6.376;2023-06-19T06:21:41;21.30;99.90
16477;DHT22;8349;50.928;6.376;2023-06-19T06:24:08;21.30;99.90
16477;DHT22;8349;50.928;6.376;2023-06-19T06:26:34;21.30;99.90
16477;DHT22;8349;50.928;6.376;2023-06-19T06:29:02;21.30;99.90
16477;DHT22;8349;50.928;6.376;2023-06-19T06:31:30;21.40;99.90
16477;DHT22;8349;50.928;6.376;2023-06-19T06:33:57;21.50;99.90
16477;DHT22;8349;50.928;6.376;2023-06-19T06:36:24;21.40;99.90
16477;DHT22;8349;50.928;6.376;2023-06-19T06:38:51;21.40;99.90
16477;DHT22;8349;50.928;6.376;2023-06-19T06:41:18;21.40;99.90
16477;DHT22;8349;50.928;6.376;2023-06-19T06:43:45;21.60;99.90
16477;DHT22;8349;50.928;6.376;2023-06-19T06:46:11;21.60;99.90
16477;DHT22;8349;50.928;6.376;2023-06-19T06:48:41;21.60;99.90
16477;DHT22;8349;50.928;6.376;2023-06-19T06:51:08;21.60;99.90
16477;DHT22;8349;50.928;6.376;2023-06-19T06:53:36;21.50;99.90
16477;DHT22;8349;50.928;6.376;2023-06-19T06:56:02;21.40;99.90
16477;DHT22;8349;50.928;6.376;2023-06-19T06:58:29;21.30;99.90
16477;DHT22;8349;50.928;6.376;2023-06-19T07:00:56;21.40;99.90
16477;DHT22;8349;50.928;6.376;2023-06-19T07:03:23;21.50;99.90
16477;DHT22;8349;50.928;6.376;2023-06-19T07:05:51;21.60;99.90
16477;DHT22;8349;50.928;6.376;2023-06-19T07:08:18;21.50;99.90
16477;DHT22;8349;50.928;6.376;2023-06-19T07:10:44;21.60;99.90
16477;DHT22;8349;50.928;6.376;2023-06-19T07:13:11;21.60;99.90
16477;DHT22;8349;50.928;6.376;2023-06-19T07:15:38;21.80;99.90
16477;DHT22;8349;50.928;6.376;2023-06-19T07:18:05;21.90;99.90
16477;DHT22;8349;50.928;6.376;2023-06-19T07:20:31;21.80;99.90
16477;DHT22;8349;50.928;6.376;2023-06-19T07:22:59;21.90;99.90
16477;DHT22;8349;50.928;6.376;2023-06-19T07:25:26;21.90;99.90
16477;DHT22;8349;50.928;6.376;2023-06-19T07:27:53;21.80;99.90
16477;DHT22;8349;50.928;6.376;2023-06-19T07:30:20;21.90;99.90
16477;DHT22;8349;50.928;6.376;2023-06-19T07:32:47;21.80;99.90
16477;DHT22;8349;50.928;6.376;2023-06-19T07:35:13;21.90;99.90
16477;DHT22;8349;50.928;6.376;2023-06-19T07:37:40;22.00;99.90
16477;DHT22;8349;50.928;6.376;2023-06-19T07:40:09;21.90;99.90
16477;DHT22;8349;50.928;6.376;2023-06-19T07:42:36;21.80;99.90
16477;DHT22;8349;50.928;6.376;2023-06-19T07:45:03;21.80;99.90
16477;DHT22;8349;50.928;6.376;2023-06-19T07:47:30;21.80;99.90
16477;DHT22;8349;50.928;6.376;2023-06-19T07:49:57;21.80;99.90
16477;DHT22;8349;50.928;6.376;2023-06-19T07:52:24;22.00;99.90
16477;DHT22;8349;50.928;6.376;2023-06-19T07:54:51;22.00;99.90
16477;DHT22;8349;50.928;6.376;2023-06-19T07:57:20;22.20;99.90
16477;DHT22;8349;50.928;6.376;2023-06-19T07:59:47;22.10;99.90
16477;DHT22;8349;50.928;6.376;2023-06-19T08:02:14;22.10;99.90
16477;DHT22;8349;50.928;6.376;2023-06-19T08:04:40;22.10;99.90
16477;DHT22;8349;50.928;6.376;2023-06-19T08:07:07;22.20;99.90
16477;DHT22;8349;50.928;6.376;2023-06-19T08:09:34;22.20;99.90
16477;DHT22;8349;50.928;6.376;2023-06-19T08:12:01;22.30;99.90
16477;DHT22;8349;50.928;6.376;2023-06-19T08:14:29;22.50;99.90
16477;DHT22;8349;50.928;6.376;2023-06-19T08:16:56;22.90;99.90
16477;DHT22;8349;50.928;6.376;2023-06-19T08:19:23;23.10;99.90
16477;DHT22;8349;50.928;6.376;2023-06-19T08:21:49;23.10;99.90
16477;DHT22;8349;50.928;6.376;2023-06-19T08:24:17;23.10;99.90
16477;DHT22;8349;50.928;6.376;2023-06-19T08:26:44;23.30;99.90
16477;DHT22;8349;50.928;6.376;2023-06-19T08:29:10;23.60;99.90
16477;DHT22;8349;50.928;6.376;2023-06-19T08:31:39;23.50;99.90
16477;DHT22;8349;50.928;6.376;2023-06-19T08:34:05;23.60;99.90
16477;DHT22;8349;50.928;6.376;2023-06-19T08:36:34;23.30;99.90
16477;DHT22;8349;50.928;6.376;2023-06-19T08:39:01;23.20;99.90
16477;DHT22;8349;50.928;6.376;2023-06-19T08:41:28;23.10;99.90
16477;DHT22;8349;50.928;6.376;2023-06-19T08:43:55;23.30;99.90
16477;DHT22;8349;50.928;6.376;2023-06-19T08:46:21;23.50;99.90
16477;DHT22;8349;50.928;6.376;2023-06-19T08:48:54;23.60;99.90
16477;DHT22;8349;50.928;6.376;2023-06-19T08:51:21;23.70;99.90
16477;DHT22;8349;50.928;6.376;2023-06-19T08:53:48;23.40;99.90
16477;DHT22;8349;50.928;6.376;2023-06-19T08:56:16;23.30;99.90
16477;DHT22;8349;50.928;6.376;2023-06-19T08:58:43;23.50;99.90
16477;DHT22;8349;50.928;6.376;2023-06-19T09:01:10;23.40;99.90
16477;DHT22;8349;50.928;6.376;2023-06-19T09:03:38;23.60;99.90
16477;DHT22;8349;50.928;6.376;2023-06-19T09:06:07;23.40;99.90
16477;DHT22;8349;50.928;6.376;2023-06-19T09:08:34;23.40;99.90
16477;DHT22;8349;50.928;6.376;2023-06-19T09:11:01;23.40;99.90
16477;DHT22;8349;50.928;6.376;2023-06-19T09:13:29;23.40;99.90
16477;DHT22;8349;50.928;6.376;2023-06-19T09:15:58;23.40;99.90
16477;DHT22;8349;50.928;6.376;2023-06-19T09:18:25;23.30;99.90
16477;DHT22;8349;50.928;6.376;2023-06-19T09:20:52;23.40;99.90
16477;DHT22;8349;50.928;6.376;2023-06-19T09:23:21;23.30;99.90
16477;DHT22;8349;50.928;6.376;2023-06-19T09:25:53;23.40;99.90
16477;DHT22;8349;50.928;6.376;2023-06-19T09:28:22;23.40;99.90
16477;DHT22;8349;50.928;6.376;2023-06-19T09:30:55;23.40;99.90
16477;DHT22;8349;50.928;6.376;2023-06-19T09:33:23;23.60;99.90
16477;DHT22;8349;50.928;6.376;2023-06-19T09:35:50;23.40;99.90
16477;DHT22;8349;50.928;6.376;2023-06-19T09:38:16;23.60;99.90
16477;DHT22;8349;50.928;6.376;2023-06-19T09:40:45;23.60;99.90
16477;DHT22;8349;50.928;6.376;2023-06-19T09:43:14;23.60;99.90
16477;DHT22;8349;50.928;6.376;2023-06-19T09:45:42;23.50;99.90
16477;DHT22;8349;50.928;6.376;2023-06-19T09:48:09;23.80;99.90
16477;DHT22;8349;50.928;6.376;2023-06-19T09:50:50;23.90;99.90
16477;DHT22;8349;50.928;6.376;2023-06-19T09:53:17;24.00;99.90
16477;DHT22;8349;50.928;6.376;2023-06-19T09:55:46;23.90;99.90
16477;DHT22;8349;50.928;6.376;2023-06-19T09:58:15;24.10;99.90
16477;DHT22;8349;50.928;6.376;2023-06-19T10:00:42;24.20;99.90
16477;DHT22;8349;50.928;6.376;2023-06-19T10:03:11;24.30;99.90
16477;DHT22;8349;50.928;6.376;2023-06-19T10:05:38;24.10;99.90
16477;DHT22;8349;50.928;6.376;2023-06-19T10:08:05;24.50;99.90
16477;DHT22;8349;50.928;6.376;2023-06-19T10:10:34;24.50;99.90
16477;DHT22;8349;50.928;6.376;2023-06-19T10:13:12;24.20;99.90
16477;DHT22;8349;50.928;6.376;2023-06-19T10:15:40;24.40;99.90
16477;DHT22;8349;50.928;6.376;2023-06-19T10:18:07;24.70;99.90
16477;DHT22;8349;50.928;6.376;2023-06-19T10:20:34;24.70;99.90
16477;DHT22;8349;50.928;6.376;2023-06-19T10:23:04;24.90;99.90
16477;DHT22;8349;50.928;6.376;2023-06-19T10:25:32;25.10;99.90
16477;DHT22;8349;50.928;6.376;2023-06-19T10:27:59;25.40;99.90
16477;DHT22;8349;50.928;6.376;2023-06-19T10:30:28;25.20;99.90
16477;DHT22;8349;50.928;6.376;2023-06-19T10:32:55;25.30;99.90
16477;DHT22;8349;50.928;6.376;2023-06-19T10:35:22;25.40;99.90
16477;DHT22;8349;50.928;6.376;2023-06-19T10:37:50;25.50;99.90
16477;DHT22;8349;50.928;6.376;2023-06-19T10:40:17;25.60;99.90
16477;DHT22;8349;50.928;6.376;2023-06-19T10:42:44;25.50;99.90
16477;DHT22;8349;50.928;6.376;2023-06-19T10:45:11;25.50;99.90
16477;DHT22;8349;50.928;6.376;2023-06-19T10:47:40;25.50;99.90
16477;DHT22;8349;50.928;6.376;2023-06-19T10:50:09;25.70;99.90
16477;DHT22;8349;50.928;6.376;2023-06-19T10:52:36;25.60;99.90
16477;DHT22;8349;50.928;6.376;2023-06-19T10:55:05;25.90;99.90
16477;DHT22;8349;50.928;6.376;2023-06-19T10:57:32;25.90;99.90
16477;DHT22;8349;50.928;6.376;2023-06-19T10:59:59;26.20;99.90
16477;DHT22;8349;50.928;6.376;2023-06-19T11:02:26;26.50;99.90
16477;DHT22;8349;50.928;6.376;2023-06-19T11:04:54;26.40;99.90
16477;DHT22;8349;50.928;6.376;2023-06-19T11:07:21;26.60;99.90
16477;DHT22;8349;50.928;6.376;2023-06-19T11:09:48;26.60;99.90
16477;DHT22;8349;50.928;6.376;2023-06-19T11:12:18;26.10;99.90
16477;DHT22;8349;50.928;6.376;2023-06-19T11:14:45;26.30;99.90
16477;DHT22;8349;50.928;6.376;2023-06-19T11:17:12;26.30;99.90
16477;DHT22;8349;50.928;6.376;2023-06-19T11:19:39;26.40;99.90
16477;DHT22;8349;50.928;6.376;2023-06-19T11:22:09;26.30;99.90
16477;DHT22;8349;50.928;6.376;2023-06-19T11:24:36;26.40;99.90
16477;DHT22;8349;50.928;6.376;2023-06-19T11:27:03;26.50;99.90
16477;DHT22;8349;50.928;6.376;2023-06-19T11:29:31;26.80;99.90
16477;DHT22;8349;50.928;6.376;2023-06-19T11:32:05;26.70;99.90
16477;DHT22;8349;50.928;6.376;2023-06-19T11:34:32;26.60;99.90
16477;DHT22;8349;50.928;6.376;2023-06-19T11:36:59;26.80;99.90
16477;DHT22;8349;50.928;6.376;2023-06-19T11:39:27;27.00;99.90
16477;DHT22;8349;50.928;6.376;2023-06-19T11:41:54;27.50;99.90
16477;DHT22;8349;50.928;6.376;2023-06-19T11:44:21;28.20;99.90
16477;DHT22;8349;50.928;6.376;2023-06-19T11:46:48;29.00;99.90
16477;DHT22;8349;50.928;6.376;2023-06-19T11:49:16;29.60;99.90
16477;DHT22;8349;50.928;6.376;2023-06-19T11:51:43;30.30;99.90
16477;DHT22;8349;50.928;6.376;2023-06-19T11:54:11;29.70;99.90
16477;DHT22;8349;50.928;6.376;2023-06-19T11:56:41;29.70;99.90
16477;DHT22;8349;50.928;6.376;2023-06-19T11:59:08;29.80;99.90
16477;DHT22;8349;50.928;6.376;2023-06-19T12:01:35;30.70;99.90
16477;DHT22;8349;50.928;6.376;2023-06-19T12:04:02;31.40;99.90
16477;DHT22;8349;50.928;6.376;2023-06-19T12:06:29;31.80;99.90
16477;DHT22;8349;50.928;6.376;2023-06-19T12:08:56;31.80;99.90
16477;DHT22;8349;50.928;6.376;2023-06-19T12:11:23;31.00;99.90
16477;DHT22;8349;50.928;6.376;2023-06-19T12:13:52;30.20;99.90
16477;DHT22;8349;50.928;6.376;2023-06-19T12:16:21;29.60;99.90
16477;DHT22;8349;50.928;6.376;2023-06-19T12:18:48;29.40;99.90
16477;DHT22;8349;50.928;6.376;2023-06-19T12:21:14;29.30;99.90
16477;DHT22;8349;50.928;6.376;2023-06-19T12:23:41;29.10;99.90
16477;DHT22;8349;50.928;6.376;2023-06-19T12:26:08;29.00;99.90
16477;DHT22;8349;50.928;6.376;2023-06-19T12:28:35;28.90;99.90
16477;DHT22;8349;50.928;6.376;2023-06-19T12:31:03;28.50;99.90
16477;DHT22;8349;50.928;6.376;2023-06-19T12:33:30;28.60;99.90
16477;DHT22;8349;50.928;6.376;2023-06-19T12:35:58;29.00;99.90
16477;DHT22;8349;50.928;6.376;2023-06-19T12:38:25;29.80;99.90
16477;DHT22;8349;50.928;6.376;2023-06-19T12:40:51;30.10;99.90
16477;DHT22;8349;50.928;6.376;2023-06-19T12:43:18;30.70;99.90
16477;DHT22;8349;50.928;6.376;2023-06-19T12:45:45;32.00;99.90
16477;DHT22;8349;50.928;6.376;2023-06-19T12:48:13;32.90;99.90
16477;DHT22;8349;50.928;6.376;2023-06-19T12:50:40;33.10;99.90
16477;DHT22;8349;50.928;6.376;2023-06-19T12:53:07;32.30;99.90
16477;DHT22;8349;50.928;6.376;2023-06-19T12:55:34;32.00;99.90
16477;DHT22;8349;50.928;6.376;2023-06-19T12:58:01;33.00;99.90
16477;DHT22;8349;50.928;6.376;2023-06-19T13:00:27;33.30;99.90
16477;DHT22;8349;50.928;6.376;2023-06-19T13:02:54;33.90;99.90
16477;DHT22;8349;50.928;6.376;2023-06-19T13:05:22;34.00;99.90
16477;DHT22;8349;50.928;6.376;2023-06-19T13:07:49;33.80;99.90
16477;DHT22;8349;50.928;6.376;2023-06-19T13:10:16;34.70;99.90
16477;DHT22;8349;50.928;6.376;2023-06-19T13:12:43;35.20;99.90
16477;DHT22;8349;50.928;6.376;2023-06-19T13:15:10;35.20;99.90
16477;DHT22;8349;50.928;6.376;2023-06-19T13:17:37;35.70;99.90
16477;DHT22;8349;50.928;6.376;2023-06-19T13:20:04;36.20;99.90
16477;DHT22;8349;50.928;6.376;2023-06-19T13:25:00;35.20;99.90
16477;DHT22;8349;50.928;6.376;2023-06-19T13:27:27;35.70;99.90
16477;DHT22;8349;50.928;6.376;2023-06-19T13:29:54;35.20;99.90
16477;DHT22;8349;50.928;6.376;2023-06-19T13:32:21;34.20;99.90
16477;DHT22;8349;50.928;6.376;2023-06-19T13:34:48;34.40;99.90
16477;DHT22;8349;50.928;6.376;2023-06-19T13:37:14;34.40;99.90
16477;DHT22;8349;50.928;6.376;2023-06-19T13:39:41;35.00;99.90
16477;DHT22;8349;50.928;6.376;2023-06-19T13:42:09;34.50;99.90
16477;DHT22;8349;50.928;6.376;2023-06-19T13:44:36;33.50;99.90
16477;DHT22;8349;50.928;6.376;2023-06-19T13:47:03;34.50;99.90
16477;DHT22;8349;50.928;6.376;2023-06-19T13:49:30;35.60;99.90
16477;DHT22;8349;50.928;6.376;2023-06-19T13:51:57;34.90;99.90
16477;DHT22;8349;50.928;6.376;2023-06-19T13:54:24;35.70;99.90
16477;DHT22;8349;50.928;6.376;2023-06-19T13:56:50;36.70;99.90
16477;DHT22;8349;50.928;6.376;2023-06-19T13:59:19;37.50;99.90
16477;DHT22;8349;50.928;6.376;2023-06-19T14:01:45;36.80;99.90
16477;DHT22;8349;50.928;6.376;2023-06-19T14:04:12;35.60;99.90
16477;DHT22;8349;50.928;6.376;2023-06-19T14:06:39;35.50;99.90
16477;DHT22;8349;50.928;6.376;2023-06-19T14:09:07;34.60;99.90
16477;DHT22;8349;50.928;6.376;2023-06-19T14:11:34;34.10;99.90
16477;DHT22;8349;50.928;6.376;2023-06-19T14:14:01;34.00;99.90
16477;DHT22;8349;50.928;6.376;2023-06-19T14:16:29;33.50;99.90
16477;DHT22;8349;50.928;6.376;2023-06-19T14:18:56;32.70;99.90
16477;DHT22;8349;50.928;6.376;2023-06-19T14:21:23;32.90;99.90
16477;DHT22;8349;50.928;6.376;2023-06-19T14:23:50;33.80;99.90
16477;DHT22;8349;50.928;6.376;2023-06-19T14:26:16;34.90;99.90
16477;DHT22;8349;50.928;6.376;2023-06-19T14:28:43;35.20;99.90
16477;DHT22;8349;50.928;6.376;2023-06-19T14:31:10;35.50;99.90
16477;DHT22;8349;50.928;6.376;2023-06-19T14:33:38;35.50;99.90
16477;DHT22;8349;50.928;6.376;2023-06-19T14:36:05;35.30;99.90
16477;DHT22;8349;50.928;6.376;2023-06-19T14:38:32;35.00;99.90
16477;DHT22;8349;50.928;6.376;2023-06-19T14:40:59;35.30;99.90
16477;DHT22;8349;50.928;6.376;2023-06-19T14:43:27;36.50;99.90
16477;DHT22;8349;50.928;6.376;2023-06-19T14:45:54;37.60;99.90
16477;DHT22;8349;50.928;6.376;2023-06-19T14:48:20;38.40;99.90
16477;DHT22;8349;50.928;6.376;2023-06-19T14:50:49;37.50;99.90
16477;DHT22;8349;50.928;6.376;2023-06-19T14:53:15;36.90;99.90
16477;DHT22;8349;50.928;6.376;2023-06-19T14:55:42;37.50;99.90
16477;DHT22;8349;50.928;6.376;2023-06-19T14:58:11;37.80;99.90
16477;DHT22;8349;50.928;6.376;2023-06-19T15:00:38;36.90;99.90
16477;DHT22;8349;50.928;6.376;2023-06-19T15:03:05;36.70;99.90
16477;DHT22;8349;50.928;6.376;2023-06-19T15:05:32;37.00;99.90
16477;DHT22;8349;50.928;6.376;2023-06-19T15:08:00;37.40;99.90
16477;DHT22;8349;50.928;6.376;2023-06-19T15:10:28;37.70;99.90
16477;DHT22;8349;50.928;6.376;2023-06-19T15:12:55;36.90;99.90
16477;DHT22;8349;50.928;6.376;2023-06-19T15:15:22;36.10;99.90
16477;DHT22;8349;50.928;6.376;2023-06-19T15:17:48;36.00;99.90
16477;DHT22;8349;50.928;6.376;2023-06-19T15:20:15;36.30;99.90
16477;DHT22;8349;50.928;6.376;2023-06-19T15:22:43;36.10;99.90
16477;DHT22;8349;50.928;6.376;2023-06-19T15:25:11;35.80;99.90
16477;DHT22;8349;50.928;6.376;2023-06-19T15:27:38;35.00;99.90
16477;DHT22;8349;50.928;6.376;2023-06-19T15:30:05;34.90;99.90
16477;DHT22;8349;50.928;6.376;2023-06-19T15:32:32;34.80;99.90
16477;DHT22;8349;50.928;6.376;2023-06-19T15:34:59;34.90;99.90
16477;DHT22;8349;50.928;6.376;2023-06-19T15:37:26;35.20;99.90
16477;DHT22;8349;50.928;6.376;2023-06-19T15:39:53;35.40;99.90
16477;DHT22;8349;50.928;6.376;2023-06-19T15:42:22;35.40;99.90
16477;DHT22;8349;50.928;6.376;2023-06-19T15:44:49;35.70;99.90
16477;DHT22;8349;50.928;6.376;2023-06-19T15:47:15;35.90;99.90
16477;DHT22;8349;50.928;6.376;2023-06-19T15:49:42;36.40;99.90